sensor_id;sensor_type;location;lat;lon;timestamp;P1;durP1;ratioP1;P2;durP2;ratioP2
50681;SDS011;36779;52.168;20.878;2023-03-08T00:01:32;3.50;;;1.70;;
50681;SDS011;36779;52.168;20.878;2023-03-08T00:04:01;3.80;;;1.70;;
50681;SDS011;36779;52.168;20.878;2023-03-08T00:06:30;6.00;;;1.70;;
50681;SDS011;36779;52.168;20.878;2023-03-08T00:09:00;5.00;;;1.80;;
50681;SDS011;36779;52.168;20.878;2023-03-08T00:11:29;4.00;;;1.20;;
50681;SDS011;36779;52.168;20.878;2023-03-08T00:13:59;3.50;;;1.60;;
50681;SDS011;36779;52.168;20.878;2023-03-08T00:16:29;4.10;;;2.10;;
50681;SDS011;36779;52.168;20.878;2023-03-08T00:18:59;7.60;;;3.30;;
50681;SDS011;36779;52.168;20.878;2023-03-08T00:21:27;6.00;;;4.00;;
50681;SDS011;36779;52.168;20.878;2023-03-08T00:23:56;9.60;;;4.10;;
50681;SDS011;36779;52.168;20.878;2023-03-08T00:26:26;10.10;;;4.70;;
50681;SDS011;36779;52.168;20.878;2023-03-08T00:28:54;9.20;;;5.10;;
50681;SDS011;36779;52.168;20.878;2023-03-08T00:31:24;8.50;;;3.50;;
50681;SDS011;36779;52.168;20.878;2023-03-08T00:33:54;5.40;;;2.30;;
50681;SDS011;36779;52.168;20.878;2023-03-08T00:36:22;4.50;;;2.20;;
50681;SDS011;36779;52.168;20.878;2023-03-08T00:38:51;4.90;;;1.90;;
50681;SDS011;36779;52.168;20.878;2023-03-08T00:41:20;5.00;;;1.60;;
50681;SDS011;36779;52.168;20.878;2023-03-08T00:43:49;3.80;;;1.60;;
50681;SDS011;36779;52.168;20.878;2023-03-08T00:46:17;3.80;;;1.60;;
50681;SDS011;36779;52.168;20.878;2023-03-08T00:48:46;7.10;;;2.50;;
50681;SDS011;36779;52.168;20.878;2023-03-08T00:51:16;4.00;;;1.90;;
50681;SDS011;36779;52.168;20.878;2023-03-08T00:53:47;6.10;;;2.30;;
50681;SDS011;36779;52.168;20.878;2023-03-08T00:56:16;3.60;;;1.60;;
50681;SDS011;36779;52.168;20.878;2023-03-08T00:58:45;7.70;;;3.50;;
50681;SDS011;36779;52.168;20.878;2023-03-08T01:01:15;7.90;;;3.00;;
50681;SDS011;36779;52.168;20.878;2023-03-08T01:03:47;4.00;;;1.80;;
50681;SDS011;36779;52.168;20.878;2023-03-08T01:06:16;10.00;;;3.50;;
50681;SDS011;36779;52.168;20.878;2023-03-08T01:08:45;10.60;;;3.50;;
50681;SDS011;36779;52.168;20.878;2023-03-08T01:11:14;5.00;;;2.70;;
50681;SDS011;36779;52.168;20.878;2023-03-08T01:13:46;6.00;;;2.80;;
50681;SDS011;36779;52.168;20.878;2023-03-08T01:16:16;5.10;;;2.10;;
50681;SDS011;36779;52.168;20.878;2023-03-08T01:18:47;4.60;;;1.70;;
50681;SDS011;36779;52.168;20.878;2023-03-08T01:21:16;3.90;;;1.20;;
50681;SDS011;36779;52.168;20.878;2023-03-08T01:23:45;2.50;;;1.30;;
50681;SDS011;36779;52.168;20.878;2023-03-08T01:26:14;1.60;;;0.80;;
50681;SDS011;36779;52.168;20.878;2023-03-08T01:28:46;2.30;;;1.30;;
50681;SDS011;36779;52.168;20.878;2023-03-08T01:31:16;3.30;;;1.30;;
50681;SDS011;36779;52.168;20.878;2023-03-08T01:33:46;1.90;;;1.10;;
50681;SDS011;36779;52.168;20.878;2023-03-08T01:36:17;2.30;;;1.00;;
50681;SDS011;36779;52.168;20.878;2023-03-08T01:38:47;3.10;;;1.10;;
50681;SDS011;36779;52.168;20.878;2023-03-08T01:41:17;3.00;;;1.20;;
50681;SDS011;36779;52.168;20.878;2023-03-08T01:43:50;2.90;;;1.00;;
50681;SDS011;36779;52.168;20.878;2023-03-08T01:46:22;2.30;;;1.20;;
50681;SDS011;36779;52.168;20.878;2023-03-08T01:49:20;2.10;;;0.80;;
50681;SDS011;36779;52.168;20.878;2023-03-08T01:51:53;1.70;;;0.80;;
50681;SDS011;36779;52.168;20.878;2023-03-08T01:54:28;2.30;;;0.70;;
50681;SDS011;36779;52.168;20.878;2023-03-08T01:57:01;3.70;;;1.00;;
50681;SDS011;36779;52.168;20.878;2023-03-08T01:59:32;2.80;;;0.70;;
50681;SDS011;36779;52.168;20.878;2023-03-08T02:02:01;2.40;;;0.90;;
50681;SDS011;36779;52.168;20.878;2023-03-08T02:04:31;2.70;;;0.90;;
50681;SDS011;36779;52.168;20.878;2023-03-08T02:07:00;2.10;;;0.80;;
50681;SDS011;36779;52.168;20.878;2023-03-08T02:09:29;2.30;;;0.90;;
50681;SDS011;36779;52.168;20.878;2023-03-08T02:12:01;6.30;;;1.00;;
50681;SDS011;36779;52.168;20.878;2023-03-08T02:14:34;4.10;;;1.20;;
50681;SDS011;36779;52.168;20.878;2023-03-08T02:17:03;1.40;;;0.70;;
50681;SDS011;36779;52.168;20.878;2023-03-08T02:19:33;2.10;;;1.00;;
50681;SDS011;36779;52.168;20.878;2023-03-08T02:22:09;2.30;;;1.00;;
50681;SDS011;36779;52.168;20.878;2023-03-08T02:24:39;2.20;;;0.70;;
50681;SDS011;36779;52.168;20.878;2023-03-08T02:27:09;3.50;;;0.90;;
50681;SDS011;36779;52.168;20.878;2023-03-08T02:29:41;8.30;;;0.90;;
50681;SDS011;36779;52.168;20.878;2023-03-08T02:32:10;3.00;;;0.70;;
50681;SDS011;36779;52.168;20.878;2023-03-08T02:34:38;3.90;;;0.70;;
50681;SDS011;36779;52.168;20.878;2023-03-08T02:37:07;1.50;;;0.60;;
50681;SDS011;36779;52.168;20.878;2023-03-08T02:39:36;3.00;;;0.60;;
50681;SDS011;36779;52.168;20.878;2023-03-08T02:42:05;1.40;;;0.70;;
50681;SDS011;36779;52.168;20.878;2023-03-08T02:44:35;2.00;;;0.60;;
50681;SDS011;36779;52.168;20.878;2023-03-08T02:47:03;3.20;;;0.60;;
50681;SDS011;36779;52.168;20.878;2023-03-08T02:49:33;5.00;;;0.70;;
50681;SDS011;36779;52.168;20.878;2023-03-08T02:52:02;1.20;;;0.70;;
50681;SDS011;36779;52.168;20.878;2023-03-08T02:54:32;4.20;;;0.70;;
50681;SDS011;36779;52.168;20.878;2023-03-08T02:57:01;2.10;;;0.70;;
50681;SDS011;36779;52.168;20.878;2023-03-08T02:59:30;1.40;;;0.60;;
50681;SDS011;36779;52.168;20.878;2023-03-08T03:01:59;2.10;;;0.70;;
50681;SDS011;36779;52.168;20.878;2023-03-08T03:04:28;2.00;;;0.90;;
50681;SDS011;36779;52.168;20.878;2023-03-08T03:06:58;2.60;;;0.50;;
50681;SDS011;36779;52.168;20.878;2023-03-08T03:09:28;2.00;;;0.60;;
50681;SDS011;36779;52.168;20.878;2023-03-08T03:12:01;1.30;;;0.80;;
50681;SDS011;36779;52.168;20.878;2023-03-08T03:14:34;2.40;;;1.00;;
50681;SDS011;36779;52.168;20.878;2023-03-08T03:17:03;4.30;;;0.80;;
50681;SDS011;36779;52.168;20.878;2023-03-08T03:19:31;1.70;;;0.80;;
50681;SDS011;36779;52.168;20.878;2023-03-08T03:22:00;5.00;;;1.00;;
50681;SDS011;36779;52.168;20.878;2023-03-08T03:24:29;3.90;;;1.00;;
50681;SDS011;36779;52.168;20.878;2023-03-08T03:27:00;2.00;;;0.80;;
50681;SDS011;36779;52.168;20.878;2023-03-08T03:29:31;7.00;;;1.10;;
50681;SDS011;36779;52.168;20.878;2023-03-08T03:32:07;6.30;;;1.40;;
50681;SDS011;36779;52.168;20.878;2023-03-08T03:34:36;3.60;;;1.50;;
50681;SDS011;36779;52.168;20.878;2023-03-08T03:37:05;7.70;;;1.10;;
50681;SDS011;36779;52.168;20.878;2023-03-08T03:39:35;3.70;;;1.30;;
50681;SDS011;36779;52.168;20.878;2023-03-08T03:42:06;3.90;;;1.30;;
50681;SDS011;36779;52.168;20.878;2023-03-08T03:44:36;5.20;;;1.70;;
50681;SDS011;36779;52.168;20.878;2023-03-08T03:47:06;6.50;;;1.40;;
50681;SDS011;36779;52.168;20.878;2023-03-08T03:49:35;4.80;;;2.00;;
50681;SDS011;36779;52.168;20.878;2023-03-08T03:52:05;5.00;;;2.00;;
50681;SDS011;36779;52.168;20.878;2023-03-08T03:54:40;4.50;;;2.20;;
50681;SDS011;36779;52.168;20.878;2023-03-08T03:57:09;4.60;;;2.20;;
50681;SDS011;36779;52.168;20.878;2023-03-08T03:59:39;4.40;;;2.10;;
50681;SDS011;36779;52.168;20.878;2023-03-08T04:02:08;1.80;;;1.20;;
50681;SDS011;36779;52.168;20.878;2023-03-08T04:04:41;7.10;;;3.00;;
50681;SDS011;36779;52.168;20.878;2023-03-08T04:07:11;6.20;;;2.60;;
50681;SDS011;36779;52.168;20.878;2023-03-08T04:09:43;8.60;;;2.80;;
50681;SDS011;36779;52.168;20.878;2023-03-08T04:12:15;9.70;;;3.10;;
50681;SDS011;36779;52.168;20.878;2023-03-08T04:14:44;6.30;;;2.60;;
50681;SDS011;36779;52.168;20.878;2023-03-08T04:17:13;7.60;;;3.40;;
50681;SDS011;36779;52.168;20.878;2023-03-08T04:19:47;6.80;;;3.20;;
50681;SDS011;36779;52.168;20.878;2023-03-08T04:22:16;8.30;;;3.60;;
50681;SDS011;36779;52.168;20.878;2023-03-08T04:24:49;6.50;;;3.40;;
50681;SDS011;36779;52.168;20.878;2023-03-08T04:27:38;7.40;;;3.30;;
50681;SDS011;36779;52.168;20.878;2023-03-08T04:30:09;9.00;;;3.50;;
50681;SDS011;36779;52.168;20.878;2023-03-08T04:32:40;7.60;;;3.50;;
50681;SDS011;36779;52.168;20.878;2023-03-08T04:35:10;8.20;;;4.20;;
50681;SDS011;36779;52.168;20.878;2023-03-08T04:37:39;6.60;;;3.30;;
50681;SDS011;36779;52.168;20.878;2023-03-08T04:40:12;9.00;;;3.60;;
50681;SDS011;36779;52.168;20.878;2023-03-08T04:42:49;8.10;;;4.30;;
50681;SDS011;36779;52.168;20.878;2023-03-08T04:45:20;8.90;;;4.00;;
50681;SDS011;36779;52.168;20.878;2023-03-08T04:47:49;11.00;;;4.10;;
50681;SDS011;36779;52.168;20.878;2023-03-08T04:50:22;11.70;;;3.80;;
50681;SDS011;36779;52.168;20.878;2023-03-08T04:52:51;9.40;;;4.90;;
50681;SDS011;36779;52.168;20.878;2023-03-08T04:55:20;10.90;;;4.70;;
50681;SDS011;36779;52.168;20.878;2023-03-08T04:57:49;9.80;;;4.50;;
50681;SDS011;36779;52.168;20.878;2023-03-08T05:00:18;7.90;;;4.60;;
50681;SDS011;36779;52.168;20.878;2023-03-08T05:02:47;8.50;;;4.70;;
50681;SDS011;36779;52.168;20.878;2023-03-08T05:05:17;9.70;;;4.20;;
50681;SDS011;36779;52.168;20.878;2023-03-08T05:07:47;12.10;;;4.80;;
50681;SDS011;36779;52.168;20.878;2023-03-08T05:10:16;11.10;;;4.90;;
50681;SDS011;36779;52.168;20.878;2023-03-08T05:12:46;10.10;;;4.60;;
50681;SDS011;36779;52.168;20.878;2023-03-08T05:15:15;12.60;;;5.70;;
50681;SDS011;36779;52.168;20.878;2023-03-08T05:17:45;12.60;;;5.20;;
50681;SDS011;36779;52.168;20.878;2023-03-08T05:20:15;15.50;;;5.60;;
50681;SDS011;36779;52.168;20.878;2023-03-08T05:22:44;8.70;;;4.00;;
50681;SDS011;36779;52.168;20.878;2023-03-08T05:25:30;15.90;;;5.80;;
50681;SDS011;36779;52.168;20.878;2023-03-08T05:28:00;12.50;;;5.20;;
50681;SDS011;36779;52.168;20.878;2023-03-08T05:30:29;14.00;;;5.30;;
50681;SDS011;36779;52.168;20.878;2023-03-08T05:32:59;13.50;;;5.50;;
50681;SDS011;36779;52.168;20.878;2023-03-08T05:35:28;10.60;;;4.80;;
50681;SDS011;36779;52.168;20.878;2023-03-08T05:37:58;13.20;;;5.60;;
50681;SDS011;36779;52.168;20.878;2023-03-08T05:40:27;10.50;;;5.10;;
50681;SDS011;36779;52.168;20.878;2023-03-08T05:42:57;11.10;;;5.50;;
50681;SDS011;36779;52.168;20.878;2023-03-08T05:45:28;10.30;;;5.10;;
50681;SDS011;36779;52.168;20.878;2023-03-08T05:47:58;11.30;;;5.60;;
50681;SDS011;36779;52.168;20.878;2023-03-08T05:50:27;9.60;;;4.60;;
50681;SDS011;36779;52.168;20.878;2023-03-08T05:52:56;9.70;;;5.10;;
50681;SDS011;36779;52.168;20.878;2023-03-08T05:55:28;12.00;;;5.80;;
50681;SDS011;36779;52.168;20.878;2023-03-08T05:57:58;13.60;;;5.90;;
50681;SDS011;36779;52.168;20.878;2023-03-08T06:00:27;12.30;;;5.70;;
50681;SDS011;36779;52.168;20.878;2023-03-08T06:02:58;12.30;;;5.00;;
50681;SDS011;36779;52.168;20.878;2023-03-08T06:05:30;11.80;;;5.10;;
50681;SDS011;36779;52.168;20.878;2023-03-08T06:08:00;11.10;;;5.30;;
50681;SDS011;36779;52.168;20.878;2023-03-08T06:10:29;11.00;;;5.20;;
50681;SDS011;36779;52.168;20.878;2023-03-08T06:12:59;12.10;;;5.30;;
50681;SDS011;36779;52.168;20.878;2023-03-08T06:15:30;12.20;;;6.20;;
50681;SDS011;36779;52.168;20.878;2023-03-08T06:17:59;10.40;;;5.10;;
50681;SDS011;36779;52.168;20.878;2023-03-08T06:20:30;12.10;;;5.20;;
50681;SDS011;36779;52.168;20.878;2023-03-08T06:23:00;9.40;;;4.50;;
50681;SDS011;36779;52.168;20.878;2023-03-08T06:25:32;10.90;;;5.10;;
50681;SDS011;36779;52.168;20.878;2023-03-08T06:28:01;9.60;;;3.90;;
50681;SDS011;36779;52.168;20.878;2023-03-08T06:30:36;11.90;;;4.80;;
50681;SDS011;36779;52.168;20.878;2023-03-08T06:33:05;10.50;;;4.90;;
50681;SDS011;36779;52.168;20.878;2023-03-08T06:35:35;10.70;;;5.10;;
50681;SDS011;36779;52.168;20.878;2023-03-08T06:38:05;13.60;;;6.10;;
50681;SDS011;36779;52.168;20.878;2023-03-08T06:40:34;13.20;;;6.00;;
50681;SDS011;36779;52.168;20.878;2023-03-08T06:43:03;14.20;;;6.60;;
50681;SDS011;36779;52.168;20.878;2023-03-08T06:45:36;8.60;;;4.40;;
50681;SDS011;36779;52.168;20.878;2023-03-08T06:48:05;14.30;;;5.80;;
50681;SDS011;36779;52.168;20.878;2023-03-08T06:50:36;12.00;;;5.40;;
50681;SDS011;36779;52.168;20.878;2023-03-08T06:53:06;12.20;;;5.30;;
50681;SDS011;36779;52.168;20.878;2023-03-08T06:55:48;10.30;;;5.20;;
50681;SDS011;36779;52.168;20.878;2023-03-08T06:58:17;9.50;;;4.70;;
50681;SDS011;36779;52.168;20.878;2023-03-08T07:00:47;15.90;;;6.90;;
50681;SDS011;36779;52.168;20.878;2023-03-08T07:03:16;13.60;;;6.70;;
50681;SDS011;36779;52.168;20.878;2023-03-08T07:05:46;9.80;;;4.10;;
50681;SDS011;36779;52.168;20.878;2023-03-08T07:08:15;12.10;;;4.90;;
50681;SDS011;36779;52.168;20.878;2023-03-08T07:10:44;10.50;;;4.70;;
50681;SDS011;36779;52.168;20.878;2023-03-08T07:13:14;11.10;;;4.60;;
50681;SDS011;36779;52.168;20.878;2023-03-08T07:15:43;8.90;;;5.00;;
50681;SDS011;36779;52.168;20.878;2023-03-08T07:18:13;12.50;;;5.40;;
50681;SDS011;36779;52.168;20.878;2023-03-08T07:20:43;11.30;;;4.30;;
50681;SDS011;36779;52.168;20.878;2023-03-08T07:23:11;14.60;;;6.90;;
50681;SDS011;36779;52.168;20.878;2023-03-08T07:25:42;13.00;;;6.90;;
50681;SDS011;36779;52.168;20.878;2023-03-08T07:28:11;13.60;;;7.20;;
50681;SDS011;36779;52.168;20.878;2023-03-08T07:30:44;12.90;;;6.70;;
50681;SDS011;36779;52.168;20.878;2023-03-08T07:33:15;23.20;;;13.60;;
50681;SDS011;36779;52.168;20.878;2023-03-08T07:35:44;15.10;;;8.30;;
50681;SDS011;36779;52.168;20.878;2023-03-08T07:38:14;9.40;;;6.20;;
50681;SDS011;36779;52.168;20.878;2023-03-08T07:40:43;15.40;;;8.30;;
50681;SDS011;36779;52.168;20.878;2023-03-08T07:43:12;12.50;;;10.70;;
50681;SDS011;36779;52.168;20.878;2023-03-08T07:45:51;13.20;;;8.10;;
50681;SDS011;36779;52.168;20.878;2023-03-08T07:48:20;9.00;;;5.70;;
50681;SDS011;36779;52.168;20.878;2023-03-08T07:50:49;9.30;;;5.60;;
50681;SDS011;36779;52.168;20.878;2023-03-08T07:53:17;8.30;;;5.40;;
50681;SDS011;36779;52.168;20.878;2023-03-08T07:55:46;11.60;;;7.60;;
50681;SDS011;36779;52.168;20.878;2023-03-08T07:58:15;7.70;;;5.00;;
50681;SDS011;36779;52.168;20.878;2023-03-08T08:00:44;11.30;;;6.70;;
50681;SDS011;36779;52.168;20.878;2023-03-08T08:03:13;9.60;;;6.30;;
50681;SDS011;36779;52.168;20.878;2023-03-08T08:05:42;8.90;;;5.80;;
50681;SDS011;36779;52.168;20.878;2023-03-08T08:08:11;9.70;;;5.90;;
50681;SDS011;36779;52.168;20.878;2023-03-08T08:10:40;10.60;;;7.10;;
50681;SDS011;36779;52.168;20.878;2023-03-08T08:13:10;10.00;;;5.20;;
50681;SDS011;36779;52.168;20.878;2023-03-08T08:15:39;11.10;;;6.10;;
50681;SDS011;36779;52.168;20.878;2023-03-08T08:18:08;10.20;;;6.60;;
50681;SDS011;36779;52.168;20.878;2023-03-08T08:20:37;10.40;;;6.00;;
50681;SDS011;36779;52.168;20.878;2023-03-08T08:23:06;10.20;;;6.80;;
50681;SDS011;36779;52.168;20.878;2023-03-08T08:25:36;10.60;;;6.60;;
50681;SDS011;36779;52.168;20.878;2023-03-08T08:28:06;7.60;;;5.40;;
50681;SDS011;36779;52.168;20.878;2023-03-08T08:30:36;9.30;;;5.50;;
50681;SDS011;36779;52.168;20.878;2023-03-08T08:33:05;7.20;;;4.50;;
50681;SDS011;36779;52.168;20.878;2023-03-08T08:35:34;9.80;;;5.50;;
50681;SDS011;36779;52.168;20.878;2023-03-08T08:38:12;7.50;;;4.90;;
50681;SDS011;36779;52.168;20.878;2023-03-08T08:40:41;5.50;;;4.00;;
50681;SDS011;36779;52.168;20.878;2023-03-08T08:43:10;10.50;;;6.00;;
50681;SDS011;36779;52.168;20.878;2023-03-08T08:45:41;8.60;;;4.30;;
50681;SDS011;36779;52.168;20.878;2023-03-08T08:48:12;9.90;;;4.70;;
50681;SDS011;36779;52.168;20.878;2023-03-08T08:50:41;10.00;;;4.80;;
50681;SDS011;36779;52.168;20.878;2023-03-08T08:53:10;8.90;;;4.70;;
50681;SDS011;36779;52.168;20.878;2023-03-08T08:55:40;7.10;;;3.60;;
50681;SDS011;36779;52.168;20.878;2023-03-08T08:58:12;7.80;;;3.60;;
50681;SDS011;36779;52.168;20.878;2023-03-08T09:00:42;8.60;;;5.00;;
50681;SDS011;36779;52.168;20.878;2023-03-08T09:03:11;8.90;;;4.20;;
50681;SDS011;36779;52.168;20.878;2023-03-08T09:05:41;12.30;;;5.00;;
50681;SDS011;36779;52.168;20.878;2023-03-08T09:08:11;12.70;;;6.40;;
50681;SDS011;36779;52.168;20.878;2023-03-08T09:10:40;21.20;;;10.10;;
50681;SDS011;36779;52.168;20.878;2023-03-08T09:13:10;6.80;;;4.10;;
50681;SDS011;36779;52.168;20.878;2023-03-08T09:15:39;11.80;;;6.10;;
50681;SDS011;36779;52.168;20.878;2023-03-08T09:18:08;6.50;;;4.40;;
50681;SDS011;36779;52.168;20.878;2023-03-08T09:20:37;9.40;;;4.60;;
50681;SDS011;36779;52.168;20.878;2023-03-08T09:23:06;8.70;;;5.20;;
50681;SDS011;36779;52.168;20.878;2023-03-08T09:25:37;5.30;;;3.80;;
50681;SDS011;36779;52.168;20.878;2023-03-08T09:28:06;9.30;;;4.80;;
50681;SDS011;36779;52.168;20.878;2023-03-08T09:30:36;6.70;;;4.20;;
50681;SDS011;36779;52.168;20.878;2023-03-08T09:33:05;8.00;;;4.70;;
50681;SDS011;36779;52.168;20.878;2023-03-08T09:35:34;6.30;;;3.60;;
50681;SDS011;36779;52.168;20.878;2023-03-08T09:38:02;6.60;;;3.90;;
50681;SDS011;36779;52.168;20.878;2023-03-08T09:40:33;8.80;;;5.00;;
50681;SDS011;36779;52.168;20.878;2023-03-08T09:43:13;11.50;;;7.00;;
50681;SDS011;36779;52.168;20.878;2023-03-08T09:45:52;14.90;;;8.30;;
50681;SDS011;36779;52.168;20.878;2023-03-08T09:48:22;15.70;;;7.30;;
50681;SDS011;36779;52.168;20.878;2023-03-08T09:50:56;17.80;;;8.90;;
50681;SDS011;36779;52.168;20.878;2023-03-08T09:53:31;13.00;;;8.90;;
50681;SDS011;36779;52.168;20.878;2023-03-08T09:56:19;5.00;;;3.80;;
50681;SDS011;36779;52.168;20.878;2023-03-08T10:01:31;9.10;;;4.30;;
50681;SDS011;36779;52.168;20.878;2023-03-08T10:04:20;7.60;;;3.90;;
50681;SDS011;36779;52.168;20.878;2023-03-08T10:07:04;6.50;;;4.00;;
50681;SDS011;36779;52.168;20.878;2023-03-08T10:09:44;10.60;;;7.40;;
50681;SDS011;36779;52.168;20.878;2023-03-08T10:12:21;9.00;;;5.20;;
50681;SDS011;36779;52.168;20.878;2023-03-08T10:14:56;6.50;;;3.50;;
50681;SDS011;36779;52.168;20.878;2023-03-08T10:17:32;7.00;;;3.60;;
50681;SDS011;36779;52.168;20.878;2023-03-08T10:20:11;8.80;;;4.50;;
50681;SDS011;36779;52.168;20.878;2023-03-08T10:22:46;6.50;;;2.90;;
50681;SDS011;36779;52.168;20.878;2023-03-08T10:25:22;5.10;;;2.90;;
50681;SDS011;36779;52.168;20.878;2023-03-08T10:27:55;6.10;;;3.00;;
50681;SDS011;36779;52.168;20.878;2023-03-08T10:30:26;6.50;;;2.90;;
50681;SDS011;36779;52.168;20.878;2023-03-08T10:32:59;4.30;;;2.30;;
50681;SDS011;36779;52.168;20.878;2023-03-08T10:35:34;6.90;;;3.00;;
50681;SDS011;36779;52.168;20.878;2023-03-08T10:38:13;7.90;;;3.90;;
50681;SDS011;36779;52.168;20.878;2023-03-08T10:40:43;6.10;;;3.50;;
50681;SDS011;36779;52.168;20.878;2023-03-08T10:43:15;8.40;;;4.00;;
50681;SDS011;36779;52.168;20.878;2023-03-08T10:45:56;5.60;;;3.10;;
50681;SDS011;36779;52.168;20.878;2023-03-08T10:48:27;4.60;;;2.80;;
50681;SDS011;36779;52.168;20.878;2023-03-08T10:51:00;6.40;;;3.10;;
50681;SDS011;36779;52.168;20.878;2023-03-08T10:53:31;7.00;;;2.70;;
50681;SDS011;36779;52.168;20.878;2023-03-08T10:56:00;7.60;;;4.50;;
50681;SDS011;36779;52.168;20.878;2023-03-08T10:58:31;6.50;;;3.70;;
50681;SDS011;36779;52.168;20.878;2023-03-08T11:01:03;6.90;;;3.60;;
50681;SDS011;36779;52.168;20.878;2023-03-08T11:03:34;4.20;;;2.80;;
50681;SDS011;36779;52.168;20.878;2023-03-08T11:06:10;7.00;;;3.70;;
50681;SDS011;36779;52.168;20.878;2023-03-08T11:08:50;9.50;;;3.80;;
50681;SDS011;36779;52.168;20.878;2023-03-08T11:11:22;9.40;;;3.70;;
50681;SDS011;36779;52.168;20.878;2023-03-08T11:13:51;7.90;;;4.20;;
50681;SDS011;36779;52.168;20.878;2023-03-08T11:19:29;7.20;;;3.80;;
50681;SDS011;36779;52.168;20.878;2023-03-08T11:22:09;7.60;;;4.10;;
50681;SDS011;36779;52.168;20.878;2023-03-08T11:25:02;6.40;;;2.90;;
50681;SDS011;36779;52.168;20.878;2023-03-08T11:27:46;8.30;;;4.00;;
50681;SDS011;36779;52.168;20.878;2023-03-08T11:30:26;6.10;;;4.10;;
50681;SDS011;36779;52.168;20.878;2023-03-08T11:33:11;7.00;;;3.50;;
50681;SDS011;36779;52.168;20.878;2023-03-08T11:36:00;7.80;;;4.30;;
50681;SDS011;36779;52.168;20.878;2023-03-08T11:38:33;11.20;;;3.90;;
50681;SDS011;36779;52.168;20.878;2023-03-08T11:41:05;7.60;;;3.30;;
50681;SDS011;36779;52.168;20.878;2023-03-08T11:43:54;8.90;;;4.40;;
50681;SDS011;36779;52.168;20.878;2023-03-08T11:46:36;8.20;;;3.80;;
50681;SDS011;36779;52.168;20.878;2023-03-08T11:49:21;7.90;;;3.50;;
50681;SDS011;36779;52.168;20.878;2023-03-08T11:52:09;6.50;;;3.50;;
50681;SDS011;36779;52.168;20.878;2023-03-08T11:54:51;7.60;;;2.90;;
50681;SDS011;36779;52.168;20.878;2023-03-08T11:57:34;7.80;;;3.60;;
50681;SDS011;36779;52.168;20.878;2023-03-08T12:02:49;5.00;;;2.60;;
50681;SDS011;36779;52.168;20.878;2023-03-08T12:05:23;7.60;;;3.70;;
50681;SDS011;36779;52.168;20.878;2023-03-08T12:07:56;7.30;;;2.40;;
50681;SDS011;36779;52.168;20.878;2023-03-08T12:10:31;7.10;;;2.80;;
50681;SDS011;36779;52.168;20.878;2023-03-08T12:13:12;5.30;;;3.10;;
50681;SDS011;36779;52.168;20.878;2023-03-08T12:15:45;6.80;;;3.10;;
50681;SDS011;36779;52.168;20.878;2023-03-08T12:18:21;6.70;;;2.90;;
50681;SDS011;36779;52.168;20.878;2023-03-08T12:21:07;3.50;;;2.20;;
50681;SDS011;36779;52.168;20.878;2023-03-08T12:23:47;4.90;;;2.50;;
50681;SDS011;36779;52.168;20.878;2023-03-08T12:26:32;32.00;;;19.20;;
50681;SDS011;36779;52.168;20.878;2023-03-08T12:31:46;6.20;;;3.20;;
50681;SDS011;36779;52.168;20.878;2023-03-08T12:34:24;5.40;;;2.70;;
50681;SDS011;36779;52.168;20.878;2023-03-08T12:36:55;9.10;;;4.10;;
50681;SDS011;36779;52.168;20.878;2023-03-08T12:39:28;13.30;;;6.10;;
50681;SDS011;36779;52.168;20.878;2023-03-08T12:42:13;9.30;;;5.20;;
50681;SDS011;36779;52.168;20.878;2023-03-08T12:44:43;8.60;;;5.10;;
50681;SDS011;36779;52.168;20.878;2023-03-08T12:47:19;10.10;;;4.60;;
50681;SDS011;36779;52.168;20.878;2023-03-08T12:49:50;15.80;;;6.70;;
50681;SDS011;36779;52.168;20.878;2023-03-08T12:52:26;12.70;;;4.70;;
50681;SDS011;36779;52.168;20.878;2023-03-08T12:55:00;16.50;;;5.40;;
50681;SDS011;36779;52.168;20.878;2023-03-08T12:57:34;15.40;;;6.10;;
50681;SDS011;36779;52.168;20.878;2023-03-08T13:00:22;6.00;;;2.80;;
50681;SDS011;36779;52.168;20.878;2023-03-08T13:02:58;5.70;;;3.30;;
50681;SDS011;36779;52.168;20.878;2023-03-08T13:05:29;7.90;;;3.80;;
50681;SDS011;36779;52.168;20.878;2023-03-08T13:08:02;15.40;;;6.40;;
50681;SDS011;36779;52.168;20.878;2023-03-08T13:10:55;13.80;;;7.10;;
50681;SDS011;36779;52.168;20.878;2023-03-08T13:13:30;10.20;;;4.90;;
50681;SDS011;36779;52.168;20.878;2023-03-08T13:16:19;15.40;;;7.30;;
50681;SDS011;36779;52.168;20.878;2023-03-08T13:19:00;16.70;;;6.70;;
50681;SDS011;36779;52.168;20.878;2023-03-08T13:21:46;12.70;;;4.40;;
50681;SDS011;36779;52.168;20.878;2023-03-08T13:24:23;7.50;;;3.90;;
50681;SDS011;36779;52.168;20.878;2023-03-08T13:32:49;16.70;;;7.90;;
50681;SDS011;36779;52.168;20.878;2023-03-08T13:35:19;12.40;;;5.60;;
50681;SDS011;36779;52.168;20.878;2023-03-08T13:37:52;15.40;;;10.60;;
50681;SDS011;36779;52.168;20.878;2023-03-08T13:40:22;11.60;;;5.90;;
50681;SDS011;36779;52.168;20.878;2023-03-08T13:42:53;8.80;;;4.50;;
50681;SDS011;36779;52.168;20.878;2023-03-08T13:45:25;7.70;;;4.60;;
50681;SDS011;36779;52.168;20.878;2023-03-08T13:47:58;6.70;;;3.80;;
50681;SDS011;36779;52.168;20.878;2023-03-08T13:50:35;6.50;;;3.90;;
50681;SDS011;36779;52.168;20.878;2023-03-08T13:53:09;9.90;;;4.20;;
50681;SDS011;36779;52.168;20.878;2023-03-08T13:55:44;9.30;;;4.00;;
50681;SDS011;36779;52.168;20.878;2023-03-08T13:58:23;9.90;;;4.10;;
50681;SDS011;36779;52.168;20.878;2023-03-08T14:01:09;9.90;;;3.60;;
50681;SDS011;36779;52.168;20.878;2023-03-08T14:03:39;7.90;;;4.00;;
50681;SDS011;36779;52.168;20.878;2023-03-08T14:06:16;9.60;;;4.10;;
50681;SDS011;36779;52.168;20.878;2023-03-08T14:08:48;8.80;;;4.80;;
50681;SDS011;36779;52.168;20.878;2023-03-08T14:11:21;9.50;;;4.90;;
50681;SDS011;36779;52.168;20.878;2023-03-08T14:13:54;8.60;;;4.50;;
50681;SDS011;36779;52.168;20.878;2023-03-08T14:16:28;11.80;;;4.10;;
50681;SDS011;36779;52.168;20.878;2023-03-08T14:19:19;8.90;;;4.20;;
50681;SDS011;36779;52.168;20.878;2023-03-08T14:21:51;8.10;;;4.00;;
50681;SDS011;36779;52.168;20.878;2023-03-08T14:24:23;6.50;;;4.20;;
50681;SDS011;36779;52.168;20.878;2023-03-08T14:27:05;7.20;;;3.60;;
50681;SDS011;36779;52.168;20.878;2023-03-08T14:30:03;5.40;;;2.80;;
50681;SDS011;36779;52.168;20.878;2023-03-08T14:32:42;6.60;;;3.80;;
50681;SDS011;36779;52.168;20.878;2023-03-08T14:35:25;9.10;;;4.60;;
50681;SDS011;36779;52.168;20.878;2023-03-08T14:38:11;8.00;;;4.50;;
50681;SDS011;36779;52.168;20.878;2023-03-08T14:43:28;6.00;;;3.40;;
50681;SDS011;36779;52.168;20.878;2023-03-08T14:46:06;6.90;;;3.30;;
50681;SDS011;36779;52.168;20.878;2023-03-08T14:48:36;10.30;;;4.50;;
50681;SDS011;36779;52.168;20.878;2023-03-08T14:51:25;9.90;;;4.60;;
50681;SDS011;36779;52.168;20.878;2023-03-08T14:54:00;14.40;;;8.00;;
50681;SDS011;36779;52.168;20.878;2023-03-08T14:56:41;10.20;;;5.40;;
50681;SDS011;36779;52.168;20.878;2023-03-08T14:59:14;11.60;;;7.00;;
50681;SDS011;36779;52.168;20.878;2023-03-08T15:01:54;21.40;;;7.40;;
50681;SDS011;36779;52.168;20.878;2023-03-08T15:04:25;12.80;;;7.30;;
50681;SDS011;36779;52.168;20.878;2023-03-08T15:06:54;22.20;;;9.20;;
50681;SDS011;36779;52.168;20.878;2023-03-08T15:09:23;17.20;;;9.10;;
50681;SDS011;36779;52.168;20.878;2023-03-08T15:11:53;19.40;;;9.70;;
50681;SDS011;36779;52.168;20.878;2023-03-08T15:14:26;13.50;;;6.70;;
50681;SDS011;36779;52.168;20.878;2023-03-08T15:17:04;12.80;;;6.00;;
50681;SDS011;36779;52.168;20.878;2023-03-08T15:19:37;14.40;;;7.40;;
50681;SDS011;36779;52.168;20.878;2023-03-08T15:22:07;15.50;;;6.80;;